WXM80 ListenWXM80 Stop

You find our weather info also at:

UK Metoffice

WeatherCloud

Weather Underground

Northeastern Weather Network

AWEKAS

Citizen Weather Observer Program (CWOP)

HAMweather, WeatherForYou, PWS Weather


Weather Underground History page Text

Daily Summary for September 10, 2017 Units:  Metric    English   Both
« Previous Day
Next Day »
Daily Weekly Monthly Yearly Custom
  High: Low: Average:
Temperature: 24.8 °C 14.7 °C 18.9 °C
Dew Point: 15.5 °C 11.2 °C 13 °C
Humidity: 87 % 51 % 70 %
Wind Speed: 12.9 km/h 0 km/h 4.2 km/h
Wind Gust: 24.1 km/h - -
Wind:- - SSE
Pressure: 1026.3 hPa 1023.6 hPa -
Precipitation: 0 mm    
Historical Graphs
 
 
Tabular Data for September 10, 2017
Time Temperature Dew Point Pressure Wind Wind Speed Wind Gust Humidity Rainfall Rate (Hourly)
00:03 16.7 °C 13 °C 1023.6 hPa NNE 12.9 km/h 18.5 km/h 79 % 0 mm
00:08 16.7 °C 13 °C 1023.6 hPa NNE 9.3 km/h 16.7 km/h 79 % 0 mm
00:13 16.7 °C 13 °C 1023.6 hPa NNE 8.5 km/h 14.8 km/h 79 % 0 mm
00:18 16.7 °C 13 °C 1023.6 hPa NNE 9.3 km/h 16.7 km/h 79 % 0 mm
00:23 16.7 °C 13 °C 1023.6 hPa North 6.4 km/h 11.1 km/h 79 % 0 mm
00:28 16.6 °C 12.9 °C 1023.6 hPa ENE 9.3 km/h 14.8 km/h 79 % 0 mm
00:33 16.6 °C 12.9 °C 1023.6 hPa ENE 11.6 km/h 16.1 km/h 79 % 0 mm
00:38 16.6 °C 12.9 °C 1023.6 hPa NE 6.3 km/h 9.7 km/h 79 % 0 mm
00:43 16.6 °C 12.9 °C 1023.9 hPa NE 7.7 km/h 9.3 km/h 79 % 0 mm
00:48 16.6 °C 12.9 °C 1023.6 hPa NE 9 km/h 16.1 km/h 79 % 0 mm
00:53 16.6 °C 12.9 °C 1023.6 hPa North 6 km/h 14.5 km/h 79 % 0 mm
00:58 16.5 °C 12.8 °C 1023.9 hPa North 7.1 km/h 7.1 km/h 79 % 0 mm
01:03 16.5 °C 13.1 °C 1023.9 hPa NNE 5.6 km/h 16.7 km/h 80 % 0 mm
01:08 16.4 °C 13 °C 1023.9 hPa North 6.8 km/h 13 km/h 80 % 0 mm
01:13 16.4 °C 13 °C 1023.9 hPa NNW 6.8 km/h 11.3 km/h 80 % 0 mm
01:19 16.3 °C 12.9 °C 1023.6 hPa North 6.3 km/h 13 km/h 80 % 0 mm
01:24 16.3 °C 12.9 °C 1023.9 hPa NNE 5.1 km/h 9.7 km/h 80 % 0 mm
01:29 16.3 °C 12.8 °C 1023.9 hPa North 5 km/h 13 km/h 80 % 0 mm
01:34 16.3 °C 12.8 °C 1023.6 hPa North 2.7 km/h 7.4 km/h 80 % 0 mm
01:39 16.2 °C 12.9 °C 1023.6 hPa North 8 km/h 11.1 km/h 81 % 0 mm
01:44 16.2 °C 12.7 °C 1023.9 hPa North 4.8 km/h 14.8 km/h 80 % 0 mm
01:49 16.1 °C 12.8 °C 1023.9 hPa NNE 5.8 km/h 9.3 km/h 81 % 0 mm
01:54 16.1 °C 12.8 °C 1023.9 hPa North 7.7 km/h 11.1 km/h 81 % 0 mm
01:59 16.1 °C 12.8 °C 1023.9 hPa North 3.2 km/h 7.4 km/h 81 % 0 mm
02:04 16 °C 12.7 °C 1023.9 hPa NNE 8 km/h 11.1 km/h 81 % 0 mm
02:09 15.9 °C 12.7 °C 1023.9 hPa NNE 7.1 km/h 13 km/h 81 % 0 mm
02:14 15.9 °C 12.8 °C 1023.9 hPa NNE 3.5 km/h 11.1 km/h 82 % 0 mm
02:19 15.8 °C 12.8 °C 1023.9 hPa NNW 4.7 km/h 8 km/h 82 % 0 mm
02:24 15.8 °C 12.7 °C 1023.9 hPa NNW 7.1 km/h 13 km/h 82 % 0 mm
02:29 15.8 °C 12.7 °C 1023.9 hPa NNE 5.5 km/h 14.5 km/h 82 % 0 mm
02:34 15.7 °C 12.8 °C 1023.9 hPa North 2.4 km/h 9.3 km/h 83 % 0 mm
02:39 15.7 °C 12.8 °C 1023.9 hPa North 1.8 km/h 7.4 km/h 83 % 0 mm
02:44 15.6 °C 12.7 °C 1023.9 hPa NNE 6.8 km/h 13 km/h 83 % 0 mm
02:49 15.6 °C 12.7 °C 1023.9 hPa NNW 2.4 km/h 7.4 km/h 83 % 0 mm
02:54 15.6 °C 12.7 °C 1023.9 hPa NNW 5.8 km/h 11.1 km/h 83 % 0 mm
03:00 15.5 °C 12.6 °C 1023.9 hPa North 3.1 km/h 9.3 km/h 83 % 0 mm
03:05 15.5 °C 12.6 °C 1023.9 hPa NNW 6 km/h 13 km/h 83 % 0 mm
03:10 15.4 °C 12.8 °C 1023.9 hPa North 9.2 km/h 13 km/h 84 % 0 mm
03:15 15.4 °C 12.6 °C 1023.9 hPa NNE 4.2 km/h 13 km/h 83 % 0 mm
03:20 15.4 °C 12.6 °C 1023.9 hPa North 2.7 km/h 5.6 km/h 83 % 0 mm
03:25 15.4 °C 12.6 °C 1023.9 hPa Calm   3.7 km/h 83 % 0 mm
03:30 15.4 °C 12.7 °C 1023.9 hPa NNW 7.7 km/h 11.3 km/h 84 % 0 mm
03:35 15.3 °C 12.4 °C 1023.9 hPa NNW 3.2 km/h 11.1 km/h 83 % 0 mm
03:40 15.3 °C 12.4 °C 1023.9 hPa North 6.4 km/h 13 km/h 83 % 0 mm
03:45 15.3 °C 12.4 °C 1024.3 hPa North 5 km/h 9.3 km/h 83 % 0 mm
03:50 15.3 °C 12.4 °C 1024.3 hPa North 5.6 km/h 11.3 km/h 83 % 0 mm
03:55 15.3 °C 12.6 °C 1024.3 hPa North 2.3 km/h 5.6 km/h 84 % 0 mm
04:00 15.3 °C 12.6 °C 1024.3 hPa North 2.3 km/h 3.2 km/h 84 % 0 mm
04:05 15.3 °C 12.4 °C 1024.3 hPa NE 0.6 km/h 7.4 km/h 83 % 0 mm
04:10 15.2 °C 12.6 °C 1024.3 hPa Calm   3.7 km/h 84 % 0 mm
04:15 15.2 °C 12.6 °C 1024.3 hPa North 0.6 km/h 7.4 km/h 84 % 0 mm
04:20 15.2 °C 12.6 °C 1024.3 hPa Calm   3.7 km/h 84 % 0 mm
04:26 15.2 °C 12.5 °C 1024.3 hPa North 1.6 km/h 9.7 km/h 84 % 0 mm
04:31 15.2 °C 12.5 °C 1024.3 hPa Calm   5.6 km/h 84 % 0 mm
04:36 15.1 °C 12.6 °C 1024.3 hPa NNW 1.6 km/h 6.4 km/h 85 % 0 mm
04:41 15.1 °C 12.6 °C 1024.3 hPa NNW 1.6 km/h 6.4 km/h 85 % 0 mm
04:42 15.1 °C 12.6 °C 1024.3 hPa NE 6.9 km/h 11.1 km/h 85 % 0 mm
04:47 15.1 °C 12.4 °C 1024.3 hPa Calm     84 % 0 mm
04:52 15.1 °C 12.6 °C 1024.3 hPa North 6 km/h 11.1 km/h 85 % 0 mm
04:57 15 °C 12.5 °C 1024.3 hPa SW 2.3 km/h 5.6 km/h 85 % 0 mm
05:02 15 °C 12.3 °C 1024.3 hPa NNE 5.6 km/h 7.4 km/h 84 % 0 mm
05:07 15 °C 12.5 °C 1024.3 hPa Calm   5.6 km/h 85 % 0 mm
05:13 15 °C 12.5 °C 1024.3 hPa ENE 5.3 km/h 8 km/h 85 % 0 mm
05:18 14.9 °C 12.4 °C 1024.6 hPa NNE 6.3 km/h 9.3 km/h 85 % 0 mm
05:23 14.9 °C 12.4 °C 1024.6 hPa Calm     85 % 0 mm
05:28 14.9 °C 12.4 °C 1024.6 hPa NE 5.8 km/h 8 km/h 85 % 0 mm
05:33 14.9 °C 12.4 °C 1024.6 hPa NNE 2.6 km/h 9.7 km/h 85 % 0 mm
05:38 14.9 °C 12.4 °C 1024.6 hPa NE 6.6 km/h 13 km/h 85 % 0 mm
05:43 14.8 °C 12.3 °C 1024.6 hPa NW 2.3 km/h 16.7 km/h 85 % 0 mm
05:48 14.8 °C 12.3 °C 1024.6 hPa NNE 1.9 km/h 5.6 km/h 85 % 0 mm
05:53 14.8 °C 12.3 °C 1024.9 hPa NE 5.8 km/h 18.5 km/h 85 % 0 mm
05:58 14.8 °C 12.3 °C 1024.9 hPa NNW 1.8 km/h 7.4 km/h 85 % 0 mm
06:03 14.8 °C 12.5 °C 1024.9 hPa NE 8.9 km/h 9.3 km/h 86 % 0 mm
06:09 14.8 °C 12.4 °C 1024.9 hPa NNE 6.3 km/h 14.5 km/h 86 % 0 mm
06:14 14.8 °C 12.3 °C 1024.9 hPa NE 6.6 km/h 16.1 km/h 85 % 0 mm
06:19 14.8 °C 12.4 °C 1025.3 hPa North 11.9 km/h 18.5 km/h 86 % 0 mm
06:24 14.7 °C 12.4 °C 1025.3 hPa NNW 4.7 km/h 11.1 km/h 86 % 0 mm
06:29 14.7 °C 12.4 °C 1025.3 hPa North 1.3 km/h 5.6 km/h 86 % 0 mm
06:34 14.7 °C 12.4 °C 1025.3 hPa North 5.6 km/h 13 km/h 86 % 0 mm
06:39 14.7 °C 12.4 °C 1025.3 hPa NNW 4.7 km/h 16.7 km/h 86 % 0 mm
06:44 14.7 °C 12.4 °C 1025.6 hPa North 5 km/h 11.1 km/h 86 % 0 mm
06:49 14.7 °C 12.6 °C 1025.6 hPa North 8.5 km/h 14.8 km/h 87 % 0 mm
06:54 14.8 °C 12.4 °C 1025.6 hPa NNE 6 km/h 13 km/h 86 % 0 mm
06:59 14.8 °C 12.4 °C 1025.6 hPa NNW 11.7 km/h 22.2 km/h 86 % 0 mm
07:04 14.8 °C 12.4 °C 1026 hPa North 9.8 km/h 18.5 km/h 86 % 0 mm
07:09 14.8 °C 12.5 °C 1026 hPa NNW 11.4 km/h 20.4 km/h 86 % 0 mm
07:14 14.8 °C 12.5 °C 1026 hPa NNW 8.4 km/h 13 km/h 86 % 0 mm
07:19 14.8 °C 12.5 °C 1026 hPa NNE 7.4 km/h 11.3 km/h 86 % 0 mm
07:24 14.9 °C 12.6 °C 1026 hPa NNE 8.7 km/h 18.5 km/h 86 % 0 mm
07:29 14.9 °C 12.6 °C 1026 hPa NNE 12.2 km/h 18.5 km/h 86 % 0 mm
07:34 14.9 °C 12.6 °C 1026 hPa NNE 7.4 km/h 11.1 km/h 86 % 0 mm
07:39 14.9 °C 12.6 °C 1026 hPa NNW 10.5 km/h 14.5 km/h 86 % 0 mm
07:44 15 °C 12.7 °C 1026 hPa North 8.9 km/h 18.5 km/h 86 % 0 mm
07:49 15 °C 12.7 °C 1026 hPa NNE 7.4 km/h 14.8 km/h 86 % 0 mm
07:54 15.1 °C 12.8 °C 1026 hPa NE 9.2 km/h 14.8 km/h 86 % 0 mm
07:59 15.2 °C 12.7 °C 1026 hPa NE 11.4 km/h 24.1 km/h 85 % 0 mm
08:04 15.2 °C 12.7 °C 1026 hPa North 5.8 km/h 13 km/h 85 % 0 mm
08:09 15.2 °C 12.7 °C 1026 hPa NE 6.9 km/h 13 km/h 85 % 0 mm
08:15 15.3 °C 12.8 °C 1026 hPa NNW 6 km/h 9.3 km/h 85 % 0 mm
08:20 15.3 °C 12.7 °C 1026 hPa NNE 8.7 km/h 16.7 km/h 84 % 0 mm
08:25 15.4 °C 12.9 °C 1026 hPa NNE 5.3 km/h 12.9 km/h 85 % 0 mm
08:29 15.4 °C 12.8 °C 1026 hPa NW 11.6 km/h 18.5 km/h 84 % 0 mm
08:34 15.5 °C 12.8 °C 1026 hPa NNE 12.7 km/h 16.7 km/h 84 % 0 mm
08:39 15.6 °C 12.9 °C 1026 hPa NE 11.1 km/h 16.7 km/h 84 % 0 mm
08:44 15.7 °C 12.8 °C 1026 hPa ENE 10.5 km/h 16.7 km/h 83 % 0 mm
08:49 15.8 °C 12.8 °C 1026 hPa NNE 7.9 km/h 22.2 km/h 82 % 0 mm
08:54 15.9 °C 12.9 °C 1026 hPa NNE 9.2 km/h 16.7 km/h 82 % 0 mm
08:59 16.1 °C 12.8 °C 1026.3 hPa NNE 4.3 km/h 13 km/h 81 % 0 mm
09:04 16.2 °C 12.9 °C 1026 hPa NNW 9 km/h 16.7 km/h 81 % 0 mm
09:09 16.3 °C 13 °C 1026.3 hPa NNE 6 km/h 7.4 km/h 81 % 0 mm
09:14 16.4 °C 12.9 °C 1026.3 hPa NE 9.8 km/h 16.1 km/h 80 % 0 mm
09:19 16.4 °C 13 °C 1026.3 hPa NNE 6.8 km/h 11.3 km/h 80 % 0 mm
09:24 16.6 °C 13.1 °C 1026.3 hPa NNE 9.3 km/h 16.1 km/h 80 % 0 mm
09:29 16.7 °C 13.2 °C 1026.3 hPa NE 5.8 km/h 11.1 km/h 80 % 0 mm
09:34 16.7 °C 13.3 °C 1026.3 hPa NNE 4.3 km/h 9.3 km/h 80 % 0 mm
09:39 16.8 °C 13.2 °C 1026.3 hPa NNE 9.7 km/h 18.5 km/h 79 % 0 mm
09:44 17.1 °C 13.4 °C 1026.3 hPa NE 8.7 km/h 22.2 km/h 79 % 0 mm
09:49 17.3 °C 13.3 °C 1026.3 hPa ENE 10.6 km/h 18.5 km/h 77 % 0 mm
09:54 17.6 °C 13.3 °C 1026.3 hPa ENE 7.4 km/h 20.4 km/h 76 % 0 mm
09:59 17.8 °C 13.6 °C 1026.3 hPa NNE 8.2 km/h 16.7 km/h 76 % 0 mm
10:04 18 °C 13.5 °C 1026.3 hPa ENE 8.7 km/h 11.1 km/h 75 % 0 mm
10:09 18.1 °C 13.6 °C 1026.3 hPa NNE 7.2 km/h 11.1 km/h 75 % 0 mm
10:15 18.2 °C 13.5 °C 1026.3 hPa ENE 6.6 km/h 9.3 km/h 74 % 0 mm
10:20 18.2 °C 13.3 °C 1026.3 hPa NNE 6.6 km/h 18.5 km/h 73 % 0 mm
10:25 18.3 °C 13.3 °C 1026.3 hPa ENE 4.8 km/h 11.1 km/h 73 % 0 mm
10:30 18.3 °C 13.6 °C 1026.3 hPa North 9 km/h 18.5 km/h 74 % 0 mm
10:35 18.3 °C 13.6 °C 1026.3 hPa North 10.3 km/h 13 km/h 74 % 0 mm
10:40 18.4 °C 13.7 °C 1026.3 hPa ENE 6.9 km/h 16.1 km/h 74 % 0 mm
10:45 18.5 °C 13.8 °C 1026.3 hPa NNE 7.4 km/h 13 km/h 74 % 0 mm
10:50 18.7 °C 13.7 °C 1026.3 hPa North 8.9 km/h 16.7 km/h 73 % 0 mm
10:55 18.8 °C 13.7 °C 1026.3 hPa North 7.2 km/h 16.7 km/h 72 % 0 mm
11:00 19.1 °C 13.9 °C 1026.3 hPa NNE 8.4 km/h 16.7 km/h 72 % 0 mm
11:05 19.2 °C 14.1 °C 1026.3 hPa North 6 km/h 11.1 km/h 72 % 0 mm
11:10 19.5 °C 14.1 °C 1026.3 hPa North 4.3 km/h 8 km/h 71 % 0 mm
11:15 19.9 °C 14.3 °C 1026.3 hPa North 4.2 km/h 9.3 km/h 70 % 0 mm
11:20 20.4 °C 14.3 °C 1026.3 hPa NNE 6.6 km/h 11.3 km/h 68 % 0 mm
11:25 20.9 °C 14.6 °C 1026.3 hPa North 7.6 km/h 13 km/h 67 % 0 mm
11:30 21.3 °C 14.9 °C 1026 hPa NNE 4.8 km/h 7.4 km/h 67 % 0 mm
11:35 21.7 °C 15.5 °C 1026 hPa NNE 4.2 km/h 8 km/h 68 % 0 mm
11:40 22.1 °C 14.9 °C 1026.3 hPa NNW 5.8 km/h 8 km/h 64 % 0 mm
11:45 22.3 °C 15.4 °C 1026 hPa North 6.6 km/h 11.3 km/h 65 % 0 mm
11:51 22.6 °C 15.2 °C 1026.3 hPa NNE 3.2 km/h 12.9 km/h 63 % 0 mm
11:56 22.8 °C 14.6 °C 1026.3 hPa NNE 4.8 km/h 9.7 km/h 60 % 0 mm
12:01 22.9 °C 14.8 °C 1026.3 hPa NE 3.1 km/h 4.8 km/h 60 % 0 mm
12:06 23.2 °C 14.9 °C 1026.3 hPa NNE 1.9 km/h 7.4 km/h 60 % 0 mm
12:11 23.3 °C 15.4 °C 1026 hPa NNE 3.2 km/h 9.7 km/h 61 % 0 mm
12:16 23.5 °C 14.8 °C 1026 hPa NNE 1.6 km/h 11.3 km/h 58 % 0 mm
12:21 23.6 °C 14.9 °C 1026 hPa NE 4.8 km/h 9.7 km/h 58 % 0 mm
12:26 23.7 °C 14.9 °C 1026 hPa NNE 1.6 km/h 8 km/h 58 % 0 mm
12:31 23.7 °C 15.2 °C 1026 hPa NNE 1.6 km/h 8 km/h 59 % 0 mm
12:36 23.7 °C 15.3 °C 1026 hPa NNE 1.6 km/h 9.7 km/h 59 % 0 mm
12:41 23.8 °C 14.7 °C 1026 hPa NNE 1.6 km/h 8 km/h 57 % 0 mm
12:46 23.9 °C 15.1 °C 1026 hPa Calm   6.4 km/h 58 % 0 mm
12:51 24.1 °C 15.3 °C 1026 hPa ENE 1.6 km/h 3.2 km/h 58 % 0 mm
12:56 24.2 °C 15.1 °C 1026 hPa Calm   3.2 km/h 57 % 0 mm
13:01 24.3 °C 15 °C 1026 hPa North 3.2 km/h 7.4 km/h 56 % 0 mm
13:06 24.4 °C 15.1 °C 1025.6 hPa NNE 4.7 km/h 6.4 km/h 56 % 0 mm
13:11 24.3 °C 14.4 °C 1025.6 hPa ENE 1.8 km/h 6.4 km/h 54 % 0 mm
13:16 24.2 °C 14.9 °C 1025.6 hPa NE 2.3 km/h 3.7 km/h 56 % 0 mm
13:21 24.3 °C 14.4 °C 1025.6 hPa NNW 1.9 km/h 5.6 km/h 54 % 0 mm
13:26 24.3 °C 14.4 °C 1025.6 hPa NE 1.4 km/h 3.7 km/h 54 % 0 mm
13:31 24.3 °C 15 °C 1025.6 hPa ENE 1.6 km/h 5.6 km/h 56 % 0 mm
13:36 24.3 °C 13.8 °C 1025.3 hPa ENE 0.8 km/h 5.6 km/h 52 % 0 mm
13:39 24.3 °C 15 °C 1025.6 hPa NE 2.3 km/h 5.6 km/h 56 % 0 mm
13:44 24.3 °C 14.7 °C 1025.6 hPa NE 0.2 km/h 3.7 km/h 55 % 0 mm
13:49 24.4 °C 14.5 °C 1025.3 hPa NNE 0.6 km/h 3.7 km/h 54 % 0 mm
13:54 24.4 °C 14.2 °C 1025.6 hPa NNE 0.2 km/h 1.9 km/h 53 % 0 mm
13:59 24.4 °C 14.6 °C 1025.3 hPa NNE 1 km/h 1.9 km/h 54 % 0 mm
14:04 24.6 °C 14.9 °C 1025.3 hPa NNE 1.3 km/h 3.7 km/h 55 % 0 mm
14:10 24.5 °C 13.7 °C 1025.3 hPa NNE 0.5 km/h 1.9 km/h 51 % 0 mm
14:15 24.6 °C 14.7 °C 1025.3 hPa Calm     54 % 0 mm
14:20 24.7 °C 14.4 °C 1025.3 hPa NW 1.1 km/h 3.7 km/h 53 % 0 mm
14:25 24.7 °C 14.2 °C 1025.3 hPa NW 0.3 km/h 7.4 km/h 52 % 0 mm
14:30 24.7 °C 15 °C 1025.3 hPa NNE 2.3 km/h 5.6 km/h 55 % 0 mm
14:35 24.7 °C 14.8 °C 1025.3 hPa North 0.5 km/h 6.4 km/h 54 % 0 mm
14:40 24.7 °C 14.5 °C 1025.3 hPa North 4 km/h 7.4 km/h 53 % 0 mm
14:45 24.7 °C 13.9 °C 1024.9 hPa West 2.4 km/h 5.6 km/h 51 % 0 mm
14:50 24.8 °C 14.3 °C 1024.9 hPa North 3.5 km/h 6.4 km/h 52 % 0 mm
14:55 24.8 °C 14.9 °C 1024.9 hPa Calm   1.9 km/h 54 % 0 mm
15:00 24.8 °C 14 °C 1024.9 hPa North 1.4 km/h 3.7 km/h 51 % 0 mm
15:05 24.8 °C 14.3 °C 1024.9 hPa NNW 0.8 km/h 4.8 km/h 52 % 0 mm
15:10 24.7 °C 14.2 °C 1024.9 hPa West 3.9 km/h 5.6 km/h 52 % 0 mm
15:15 24.6 °C 14.4 °C 1024.9 hPa Calm   1.9 km/h 53 % 0 mm
15:20 24.6 °C 14.9 °C 1024.9 hPa NNW 1.6 km/h 5.6 km/h 55 % 0 mm
15:25 24.5 °C 14.3 °C 1024.9 hPa Calm   3.7 km/h 53 % 0 mm
15:30 24.6 °C 14.1 °C 1024.9 hPa NNW 2.7 km/h 5.6 km/h 52 % 0 mm
15:36 24.5 °C 14.3 °C 1024.9 hPa NNW 3.2 km/h 6.4 km/h 53 % 0 mm
15:41 24.5 °C 14 °C 1024.9 hPa NNW 1.6 km/h 8 km/h 52 % 0 mm
15:46 24.3 °C 14.4 °C 1024.9 hPa North 3.2 km/h 9.7 km/h 54 % 0 mm
15:51 24.3 °C 14.7 °C 1024.9 hPa Calm   4.8 km/h 55 % 0 mm
15:56 24.3 °C 14.4 °C 1024.9 hPa NW 3.2 km/h 11.3 km/h 54 % 0 mm
16:01 24.4 °C 14.2 °C 1024.9 hPa NNW 0.5 km/h 3.7 km/h 53 % 0 mm
16:06 24.4 °C 14.2 °C 1024.9 hPa Calm   6.4 km/h 53 % 0 mm
16:11 24.5 °C 14.3 °C 1024.9 hPa NNW 3.2 km/h 6.4 km/h 53 % 0 mm
16:16 24.6 °C 13.7 °C 1024.9 hPa Calm   6.4 km/h 51 % 0 mm
16:21 24.6 °C 14.3 °C 1024.9 hPa NW 1.6 km/h 8 km/h 53 % 0 mm
16:26 24.4 °C 14.6 °C 1024.9 hPa NW 1.6 km/h 6.4 km/h 54 % 0 mm
16:31 24.3 °C 14.4 °C 1024.9 hPa NW 3.2 km/h 6.4 km/h 54 % 0 mm
16:36 23.9 °C 14.1 °C 1025.3 hPa North 1.6 km/h 9.7 km/h 54 % 0 mm
16:41 23.6 °C 14.1 °C 1024.9 hPa North 1.6 km/h 8 km/h 55 % 0 mm
16:46 23.4 °C 13.9 °C 1024.9 hPa North 2.7 km/h 8 km/h 55 % 0 mm
16:51 23.3 °C 13.8 °C 1024.9 hPa NNW 1.6 km/h 6.4 km/h 55 % 0 mm
16:56 23.2 °C 13.3 °C 1025.3 hPa NNW 4.8 km/h 9.7 km/h 54 % 0 mm
17:01 22.9 °C 13.9 °C 1025.3 hPa NW 1.8 km/h 3.7 km/h 57 % 0 mm
17:06 22.9 °C 13.7 °C 1025.3 hPa NNW 1.6 km/h 9.7 km/h 56 % 0 mm
17:11 22.8 °C 13.3 °C 1024.9 hPa NW 2.9 km/h 7.4 km/h 55 % 0 mm
17:16 22.8 °C 14.1 °C 1025.3 hPa WNW 0.8 km/h 3.7 km/h 58 % 0 mm
17:21 22.8 °C 13.8 °C 1024.9 hPa NW 1.6 km/h 5.6 km/h 57 % 0 mm
17:26 22.6 °C 13.4 °C 1025.3 hPa North 1.4 km/h 3.7 km/h 56 % 0 mm
17:29 22.6 °C 13.6 °C 1025.3 hPa NNE 6.4 km/h 11.1 km/h 57 % 0 mm
17:34 22.4 °C 13.7 °C 1025.3 hPa West 0.3 km/h 5.6 km/h 58 % 0 mm
17:39 22.3 °C 13.6 °C 1025.3 hPa NNW 1.4 km/h 5.6 km/h 58 % 0 mm
17:44 22.1 °C 13.4 °C 1025.3 hPa North 2.4 km/h 6.4 km/h 58 % 0 mm
17:49 21.9 °C 13.1 °C 1025.3 hPa NW 2.3 km/h 9.3 km/h 57 % 0 mm
17:54 21.8 °C 13.2 °C 1025.3 hPa SW 3.1 km/h 7.4 km/h 58 % 0 mm
17:59 21.8 °C 13.2 °C 1025.3 hPa WNW 0.2 km/h 1.9 km/h 58 % 0 mm
18:04 21.7 °C 13.3 °C 1025.3 hPa NW 2.7 km/h 7.4 km/h 59 % 0 mm
18:09 21.6 °C 13.4 °C 1025.3 hPa West 1.3 km/h 9.3 km/h 60 % 0 mm
18:14 21.4 °C 12.6 °C 1025.3 hPa WNW 4.5 km/h 6.4 km/h 57 % 0 mm
18:19 21.3 °C 13 °C 1025.3 hPa North 7.6 km/h 13 km/h 59 % 0 mm
18:24 21.2 °C 12.3 °C 1025.3 hPa North 3.9 km/h 8 km/h 57 % 0 mm
18:29 21.1 °C 12.2 °C 1025.3 hPa NNE 9.8 km/h 14.8 km/h 57 % 0 mm
18:34 20.9 °C 12.1 °C 1025.3 hPa NNE 4.5 km/h 11.1 km/h 57 % 0 mm
18:39 20.8 °C 12.2 °C 1025.3 hPa NNE 1.8 km/h 7.4 km/h 58 % 0 mm
18:44 20.7 °C 11.8 °C 1025.3 hPa North 9 km/h 9.7 km/h 57 % 0 mm
18:49 20.6 °C 12.3 °C 1025.3 hPa NE 5.3 km/h 9.7 km/h 59 % 0 mm
18:54 20.4 °C 11.9 °C 1025.3 hPa North 3.2 km/h 5.6 km/h 58 % 0 mm
18:59 20.3 °C 12.1 °C 1025.3 hPa NNE 3.7 km/h 7.4 km/h 59 % 0 mm
19:04 20.2 °C 11.9 °C 1025.3 hPa Calm   5.6 km/h 59 % 0 mm
19:09 20.2 °C 11.9 °C 1025.3 hPa NNW 3.2 km/h 8 km/h 59 % 0 mm
19:14 20.1 °C 11.8 °C 1025.3 hPa NNW 1.1 km/h 5.6 km/h 59 % 0 mm
19:19 20.1 °C 12.1 °C 1025.3 hPa NNW 5.5 km/h 8 km/h 60 % 0 mm
19:25 20 °C 12 °C 1025.3 hPa North 1.6 km/h 6.4 km/h 60 % 0 mm
19:30 19.9 °C 11.9 °C 1025.3 hPa NW 1.3 km/h 5.6 km/h 60 % 0 mm
19:35 19.8 °C 11.8 °C 1025.3 hPa WNW 3.4 km/h 9.7 km/h 60 % 0 mm
19:40 19.8 °C 11.6 °C 1025.3 hPa NNW 0.8 km/h 5.6 km/h 59 % 0 mm
19:45 19.7 °C 11.4 °C 1025.3 hPa NW 2.4 km/h 5.6 km/h 59 % 0 mm
19:50 19.6 °C 11.6 °C 1025.3 hPa NNW 0.3 km/h 3.7 km/h 60 % 0 mm
19:55 19.5 °C 11.3 °C 1025.3 hPa NNE 5.5 km/h 11.1 km/h 59 % 0 mm
20:00 19.4 °C 11.2 °C 1025.3 hPa North 0.8 km/h 7.4 km/h 59 % 0 mm
20:05 19.4 °C 11.4 °C 1025.3 hPa North 0.8 km/h 3.7 km/h 60 % 0 mm
20:10 19.4 °C 11.7 °C 1025.3 hPa NE 2.9 km/h 11.1 km/h 61 % 0 mm
20:15 19.3 °C 11.6 °C 1025.3 hPa NW 0.2 km/h 1.9 km/h 61 % 0 mm
20:20 19.3 °C 11.6 °C 1025.3 hPa WNW 4.7 km/h 5.6 km/h 61 % 0 mm
20:21 19.2 °C 11.5 °C 1025.3 hPa WNW 3.1 km/h 7.4 km/h 61 % 0 mm
20:26 19.2 °C 11.5 °C 1025.3 hPa NNE 1.8 km/h 11.1 km/h 61 % 0 mm
20:31 19.2 °C 11.4 °C 1025.3 hPa NNW 7.1 km/h 14.5 km/h 61 % 0 mm
20:36 19.1 °C 11.4 °C 1025.6 hPa NE 7.2 km/h 9.7 km/h 61 % 0 mm
20:41 19.1 °C 11.3 °C 1025.6 hPa NNE 5.5 km/h 9.3 km/h 61 % 0 mm
20:46 19.1 °C 11.6 °C 1025.6 hPa NNE 4.3 km/h 9.3 km/h 62 % 0 mm
20:51 19.1 °C 11.6 °C 1025.6 hPa NNW 6.6 km/h 13 km/h 62 % 0 mm
20:56 19 °C 11.8 °C 1025.6 hPa North 6.3 km/h 11.1 km/h 63 % 0 mm
21:01 18.9 °C 11.7 °C 1025.6 hPa NNE 5 km/h 11.1 km/h 63 % 0 mm
21:06 18.9 °C 11.5 °C 1025.6 hPa North 7.1 km/h 13 km/h 62 % 0 mm
21:11 18.9 °C 11.7 °C 1025.6 hPa NNW 6.3 km/h 9.3 km/h 63 % 0 mm
21:16 18.9 °C 11.9 °C 1025.6 hPa North 3.7 km/h 7.4 km/h 64 % 0 mm
21:21 18.8 °C 11.9 °C 1025.6 hPa NNE 2.3 km/h 5.6 km/h 64 % 0 mm
21:26 18.8 °C 11.8 °C 1025.6 hPa NNE 7.4 km/h 13 km/h 64 % 0 mm
21:31 18.7 °C 11.6 °C 1025.6 hPa North 4.7 km/h 9.3 km/h 63 % 0 mm
21:36 18.7 °C 11.8 °C 1025.6 hPa North 4.2 km/h 9.3 km/h 64 % 0 mm
21:41 18.7 °C 11.7 °C 1025.6 hPa NNE 3.7 km/h 9.3 km/h 64 % 0 mm
21:46 18.6 °C 11.9 °C 1025.6 hPa North 5.6 km/h 6.4 km/h 65 % 0 mm
21:51 18.6 °C 11.8 °C 1025.6 hPa North 3.1 km/h 6.4 km/h 65 % 0 mm
21:56 18.5 °C 11.8 °C 1025.6 hPa NNW 0.8 km/h 5.6 km/h 65 % 0 mm
21:57 18.5 °C 11.8 °C 1025.6 hPa NNE 2.4 km/h 6.4 km/h 65 % 0 mm
22:02 18.4 °C 12 °C 1026 hPa North 0.8 km/h 6.4 km/h 66 % 0 mm
22:07 18.4 °C 12.2 °C 1026 hPa NE 0.6 km/h 5.6 km/h 67 % 0 mm
22:12 18.3 °C 12.1 °C 1026 hPa NNE 0.5 km/h 5.6 km/h 67 % 0 mm
22:17 18.3 °C 12.3 °C 1026 hPa WNW 0.3 km/h 5.6 km/h 68 % 0 mm
22:22 18.2 °C 12 °C 1026 hPa NNE 0.2 km/h 5.6 km/h 67 % 0 mm
22:27 18.2 °C 12.2 °C 1026 hPa Calm     68 % 0 mm
22:32 18.1 °C 12.1 °C 1026.3 hPa NW 2.1 km/h 7.4 km/h 68 % 0 mm
22:37 18.1 °C 12.1 °C 1026 hPa WNW 1.6 km/h 5.6 km/h 68 % 0 mm
22:42 18 °C 12 °C 1026.3 hPa NW 0.6 km/h 1.9 km/h 68 % 0 mm
22:48 17.9 °C 12.1 °C 1026.3 hPa NW 0.2 km/h 1.9 km/h 69 % 0 mm
22:53 17.8 °C 12.1 °C 1026.3 hPa NNW 1.9 km/h 6.4 km/h 69 % 0 mm
22:58 17.7 °C 11.9 °C 1026.3 hPa NW 1 km/h 3.7 km/h 69 % 0 mm
23:03 17.7 °C 11.9 °C 1026.3 hPa WNW 1.9 km/h 5.6 km/h 69 % 0 mm
23:08 17.6 °C 11.8 °C 1026.3 hPa Calm   1.9 km/h 69 % 0 mm
23:13 17.5 °C 11.9 °C 1026.3 hPa Calm   1.9 km/h 70 % 0 mm
23:20 17.4 °C 11.8 °C 1026 hPa WNW 0.3 km/h 5.6 km/h 70 % 0 mm
23:22 17.3 °C 11.8 °C 1026 hPa NNW 3.7 km/h 6.4 km/h 70 % 0 mm
23:27 17.2 °C 11.7 °C 1026.3 hPa NW 0.8 km/h 5.6 km/h 70 % 0 mm
23:29 17.2 °C 11.7 °C 1026.3 hPa WNW 0.2 km/h 5.6 km/h 70 % 0 mm
23:31 17.2 °C 11.7 °C 1026.3 hPa NNW 0.5 km/h 5.6 km/h 70 % 0 mm
23:33 17.1 °C 11.6 °C 1026 hPa WNW 1.9 km/h 9.7 km/h 70 % 0 mm
23:38 17.1 °C 11.6 °C 1026.3 hPa North 0.3 km/h 5.6 km/h 70 % 0 mm
23:41 17.1 °C 11.8 °C 1026 hPa North 0.2 km/h 1.9 km/h 71 % 0 mm
23:46 17 °C 11.7 °C 1026.3 hPa Calm     71 % 0 mm
23:51 16.9 °C 11.8 °C 1026 hPa Calm     72 % 0 mm
23:56 16.9 °C 12 °C 1026 hPa Calm     73 % 0 mm
Crab Meadow Weather
Compliments of Weather Underground - 3 mb

Script developed by  Jim McMurry - jmcmurry@mwt.net Adapted for the template by  Wim van der Kuil - Leuven-Template.eu

Extremes: Currently the driest state is Nevada with an annual rainfall of only nine inches.